createdAt,value
2019-02-06T00:00:07.387Z,9.40
2019-02-06T00:02:35.949Z,12.10
2019-02-06T00:05:13.863Z,9.80
2019-02-06T00:07:35.931Z,10.93
2019-02-06T00:10:06.677Z,9.50
2019-02-06T00:12:35.192Z,9.50
2019-02-06T00:15:05.751Z,9.28
2019-02-06T00:17:35.560Z,11.78
2019-02-06T00:20:05.557Z,10.55
2019-02-06T00:22:34.032Z,9.23
2019-02-06T00:25:04.215Z,10.18
2019-02-06T00:27:32.665Z,11.05
2019-02-06T00:30:01.258Z,11.95
2019-02-06T00:32:29.805Z,10.45
2019-02-06T00:34:58.256Z,10.98
2019-02-06T00:37:26.713Z,9.40
2019-02-06T00:39:55.249Z,14.20
2019-02-06T00:42:23.667Z,13.18
2019-02-06T00:44:52.111Z,11.43
2019-02-06T00:47:20.691Z,12.33
2019-02-06T00:49:49.171Z,10.63
2019-02-06T00:52:17.616Z,9.90
2019-02-06T00:54:46.105Z,10.00
2019-02-06T00:57:14.959Z,9.53
2019-02-06T00:59:43.412Z,12.50
2019-02-06T01:02:11.890Z,12.07
2019-02-06T01:04:40.361Z,11.22
2019-02-06T01:07:08.850Z,11.65
2019-02-06T01:09:37.300Z,11.38
2019-02-06T01:12:05.787Z,10.50
2019-02-06T01:14:34.239Z,10.60
2019-02-06T01:17:02.772Z,11.50
2019-02-06T01:19:31.293Z,12.25
2019-02-06T01:21:59.937Z,14.03
2019-02-06T01:24:28.440Z,12.60
2019-02-06T01:26:57.033Z,12.07
2019-02-06T01:29:44.723Z,12.47
2019-02-06T01:32:13.322Z,12.15
2019-02-06T01:34:41.801Z,11.60
2019-02-06T01:37:10.227Z,14.63
2019-02-06T01:39:45.095Z,13.68
2019-02-06T01:42:17.429Z,12.75
2019-02-06T01:44:46.996Z,16.27
2019-02-06T01:47:16.129Z,14.40
2019-02-06T01:49:44.921Z,13.72
2019-02-06T01:52:14.104Z,13.00
2019-02-06T01:54:42.559Z,13.70
2019-02-06T01:57:12.058Z,14.87
2019-02-06T01:59:40.624Z,13.62
2019-02-06T02:02:09.075Z,12.45
2019-02-06T02:04:37.603Z,15.58
2019-02-06T02:07:06.138Z,13.55
2019-02-06T02:09:34.585Z,15.83
2019-02-06T02:12:03.045Z,17.40
2019-02-06T02:14:31.538Z,18.15
2019-02-06T02:16:59.995Z,17.62
2019-02-06T02:19:28.451Z,15.08
2019-02-06T02:21:57.056Z,16.40
2019-02-06T02:24:26.114Z,17.30
2019-02-06T02:26:54.651Z,15.95
2019-02-06T02:29:24.258Z,18.15
2019-02-06T02:31:52.739Z,15.70
2019-02-06T02:34:21.220Z,16.52
2019-02-06T02:36:49.805Z,19.30
2019-02-06T02:39:18.284Z,15.43
2019-02-06T02:42:06.122Z,18.62
2019-02-06T02:44:34.547Z,19.75
2019-02-06T02:47:03.012Z,15.48
2019-02-06T02:49:31.563Z,17.75
2019-02-06T02:52:00.059Z,17.85
2019-02-06T02:54:28.631Z,16.60
2019-02-06T02:56:58.741Z,14.93
2019-02-06T02:59:27.243Z,15.32
2019-02-06T03:02:03.495Z,15.32
2019-02-06T03:04:33.304Z,13.40
2019-02-06T03:07:01.797Z,17.70
2019-02-06T03:09:30.323Z,17.35
2019-02-06T03:11:58.869Z,14.28
2019-02-06T03:14:27.280Z,12.80
2019-02-06T03:16:55.727Z,16.50
2019-02-06T03:19:24.299Z,19.00
2019-02-06T03:21:52.796Z,17.10
2019-02-06T03:24:21.359Z,16.25
2019-02-06T03:26:50.844Z,16.80
2019-02-06T03:29:19.312Z,16.35
2019-02-06T03:31:47.861Z,14.90
2019-02-06T03:34:16.353Z,15.28
2019-02-06T03:36:44.894Z,15.25
2019-02-06T03:39:13.475Z,14.03
2019-02-06T03:41:42.058Z,14.07
2019-02-06T03:44:11.419Z,14.15
2019-02-06T03:46:39.943Z,14.65
2019-02-06T03:49:08.525Z,15.03
2019-02-06T03:51:37.111Z,14.20
2019-02-06T03:54:05.615Z,16.02
2019-02-06T03:56:34.070Z,15.48
2019-02-06T03:59:02.660Z,15.18
2019-02-06T04:01:31.119Z,13.28
2019-02-06T04:03:59.720Z,16.00
2019-02-06T04:06:28.184Z,13.45
2019-02-06T04:08:56.651Z,15.28
2019-02-06T04:11:25.141Z,17.70
2019-02-06T04:13:53.735Z,16.52
2019-02-06T04:16:23.094Z,12.45
2019-02-06T04:18:51.547Z,14.25
2019-02-06T04:21:20.209Z,14.00
2019-02-06T04:23:48.799Z,16.55
2019-02-06T04:26:17.279Z,15.23
2019-02-06T04:28:45.711Z,15.58
2019-02-06T04:31:14.202Z,16.20
2019-02-06T04:33:42.721Z,16.55
2019-02-06T04:36:11.220Z,21.35
2019-02-06T04:38:39.786Z,18.37
2019-02-06T04:41:08.374Z,19.42
2019-02-06T04:43:36.830Z,21.68
2019-02-06T04:46:05.343Z,21.90
2019-02-06T04:48:34.784Z,21.68
2019-02-06T04:51:03.317Z,24.98
2019-02-06T04:53:31.902Z,20.00
2019-02-06T04:56:00.309Z,25.60
2019-02-06T04:58:28.867Z,28.73
2019-02-06T05:00:57.364Z,24.45
2019-02-06T05:03:26.053Z,23.62
2019-02-06T05:05:55.124Z,24.80
2019-02-06T05:08:23.579Z,23.73
2019-02-06T05:10:52.036Z,29.55
2019-02-06T05:13:20.548Z,28.73
2019-02-06T05:15:49.053Z,27.25
2019-02-06T05:18:36.880Z,27.42
2019-02-06T05:21:05.368Z,25.85
2019-02-06T05:23:33.852Z,26.62
2019-02-06T05:26:02.528Z,25.43
2019-02-06T05:28:31.615Z,24.90
2019-02-06T05:31:00.064Z,25.97
2019-02-06T05:33:29.458Z,24.37
2019-02-06T05:35:58.003Z,24.05
2019-02-06T05:38:26.477Z,29.00
2019-02-06T05:40:55.065Z,29.20
2019-02-06T05:43:24.268Z,26.95
2019-02-06T05:45:52.724Z,27.90
2019-02-06T05:48:21.184Z,30.02
2019-02-06T05:50:50.625Z,29.72
2019-02-06T05:53:19.105Z,28.32
2019-02-06T05:55:47.686Z,21.37
2019-02-06T05:58:16.180Z,29.80
2019-02-06T06:00:46.022Z,29.12
2019-02-06T06:03:14.490Z,26.50
2019-02-06T06:05:43.046Z,24.30
2019-02-06T06:08:12.348Z,24.07
2019-02-06T06:10:40.826Z,27.15
2019-02-06T06:13:09.308Z,26.40
2019-02-06T06:15:37.791Z,25.62
2019-02-06T06:18:06.274Z,20.02
2019-02-06T06:20:34.751Z,31.27
2019-02-06T06:23:03.204Z,19.62
2019-02-06T06:25:32.408Z,24.12
2019-02-06T06:28:00.868Z,19.25
2019-02-06T06:30:29.399Z,21.10
2019-02-06T06:32:57.940Z,20.12
2019-02-06T06:35:26.394Z,42.62
2019-02-06T06:38:01.264Z,35.65
2019-02-06T06:40:25.201Z,26.70
2019-02-06T06:42:53.656Z,19.40
2019-02-06T06:45:23.654Z,23.20
2019-02-06T06:47:52.179Z,24.10
2019-02-06T06:50:22.326Z,25.92
2019-02-06T06:52:50.782Z,24.60
2019-02-06T06:55:20.144Z,20.12
2019-02-06T06:57:48.626Z,19.23
2019-02-06T07:00:18.640Z,18.73
2019-02-06T07:02:47.235Z,19.07
2019-02-06T07:05:16.789Z,19.87
2019-02-06T07:07:45.231Z,18.80
2019-02-06T07:10:14.625Z,16.50
2019-02-06T07:12:44.838Z,20.12
2019-02-06T07:15:17.891Z,13.20
2019-02-06T07:17:46.405Z,16.85
2019-02-06T07:20:16.555Z,18.40
2019-02-06T07:22:45.108Z,17.65
2019-02-06T07:25:15.392Z,20.30
2019-02-06T07:27:43.955Z,16.42
2019-02-06T07:30:32.624Z,17.85
2019-02-06T07:33:01.092Z,18.25
2019-02-06T07:35:29.873Z,20.32
2019-02-06T07:37:59.341Z,13.20
2019-02-06T07:40:27.793Z,16.67
2019-02-06T07:42:56.256Z,15.80
2019-02-06T07:45:24.785Z,14.65
2019-02-06T07:47:53.208Z,13.53
2019-02-06T07:50:23.284Z,14.35
2019-02-06T07:52:51.727Z,15.50
2019-02-06T07:55:20.187Z,14.73
2019-02-06T07:57:48.749Z,14.15
2019-02-06T08:00:17.267Z,16.40
2019-02-06T08:02:47.431Z,13.35
2019-02-06T08:05:17.399Z,16.95
2019-02-06T08:07:46.480Z,13.35
2019-02-06T08:10:16.636Z,14.00
2019-02-06T08:12:45.779Z,12.40
2019-02-06T08:15:15.744Z,12.68
2019-02-06T08:17:44.257Z,12.28
2019-02-06T08:20:14.274Z,13.55
2019-02-06T08:22:42.816Z,13.43
2019-02-06T08:25:13.080Z,13.13
2019-02-06T08:27:41.530Z,15.40
2019-02-06T08:30:14.240Z,13.90
2019-02-06T08:32:42.739Z,14.83
2019-02-06T08:35:12.055Z,14.15
2019-02-06T08:37:40.591Z,12.43
2019-02-06T08:40:10.377Z,18.90
2019-02-06T08:42:38.815Z,10.72
2019-02-06T08:45:14.746Z,13.55
2019-02-06T08:47:43.295Z,14.40
2019-02-06T08:50:13.079Z,13.48
2019-02-06T08:52:41.569Z,13.15
2019-02-06T08:55:11.543Z,13.85
2019-02-06T08:57:40.090Z,15.05
2019-02-06T09:00:15.936Z,16.55
2019-02-06T09:02:44.463Z,15.90
2019-02-06T09:05:13.003Z,17.52
2019-02-06T09:07:41.576Z,18.17
2019-02-06T09:10:13.307Z,15.78
2019-02-06T09:12:41.636Z,17.45
2019-02-06T09:15:10.570Z,17.50
2019-02-06T09:17:38.991Z,36.33
2019-02-06T09:20:08.938Z,22.30
2019-02-06T09:22:37.448Z,15.45
2019-02-06T09:25:07.506Z,12.20
2019-02-06T09:27:35.987Z,15.20
2019-02-06T09:30:05.536Z,12.70
2019-02-06T09:32:33.979Z,13.98
2019-02-06T09:35:02.494Z,11.33
2019-02-06T09:37:30.944Z,14.00
2019-02-06T09:39:59.680Z,9.45
2019-02-06T09:42:28.199Z,12.15
2019-02-06T09:44:56.651Z,10.93
2019-02-06T09:47:25.100Z,14.75
2019-02-06T09:49:53.590Z,11.57
2019-02-06T09:52:22.131Z,12.20
2019-02-06T09:54:52.179Z,9.68
2019-02-06T09:57:21.529Z,13.62
2019-02-06T09:59:49.983Z,12.90
2019-02-06T10:02:18.476Z,11.10
2019-02-06T10:04:46.939Z,10.88
2019-02-06T10:07:16.080Z,12.30
2019-02-06T10:09:44.575Z,10.08
2019-02-06T10:12:13.931Z,10.75
2019-02-06T10:14:42.385Z,12.00
2019-02-06T10:17:10.877Z,12.60
2019-02-06T10:19:42.343Z,13.50
2019-02-06T10:22:09.478Z,12.10
2019-02-06T10:24:37.981Z,14.03
2019-02-06T10:27:06.479Z,13.72
2019-02-06T10:29:35.739Z,12.00
2019-02-06T10:32:05.039Z,12.15
2019-02-06T10:34:33.503Z,10.10
2019-02-06T10:37:02.005Z,12.65
2019-02-06T10:39:34.682Z,9.68
2019-02-06T10:42:00.604Z,10.25
2019-02-06T10:44:30.005Z,13.40
2019-02-06T10:46:58.590Z,11.55
2019-02-06T10:49:27.066Z,10.30
2019-02-06T10:51:55.514Z,8.65
2019-02-06T10:54:24.136Z,11.50
2019-02-06T10:56:52.617Z,11.47
2019-02-06T10:59:21.204Z,10.50
2019-02-06T11:01:49.715Z,13.35
2019-02-06T11:04:18.164Z,9.53
2019-02-06T11:06:46.624Z,9.03
2019-02-06T11:09:15.124Z,8.97
2019-02-06T11:11:43.574Z,9.30
2019-02-06T11:14:12.500Z,14.23
2019-02-06T11:16:42.617Z,11.03
2019-02-06T11:19:11.509Z,9.17
2019-02-06T11:21:40.372Z,11.73
2019-02-06T11:24:09.290Z,10.83
2019-02-06T11:26:38.953Z,10.20
2019-02-06T11:29:07.994Z,10.07
2019-02-06T11:31:37.000Z,9.93
2019-02-06T11:34:05.980Z,9.63
2019-02-06T11:36:34.826Z,12.93
2019-02-06T11:39:07.346Z,13.20
2019-02-06T11:41:36.237Z,9.20
2019-02-06T11:44:05.743Z,10.53
2019-02-06T11:46:35.451Z,10.00
2019-02-06T11:49:06.012Z,12.33
2019-02-06T11:51:34.890Z,15.57
2019-02-06T11:54:04.683Z,11.63
2019-02-06T11:56:33.574Z,10.80
2019-02-06T11:59:03.191Z,11.60
2019-02-06T12:01:32.688Z,12.60
2019-02-06T12:04:01.578Z,15.18
2019-02-06T12:06:30.411Z,11.83
2019-02-06T12:08:59.359Z,11.60
2019-02-06T12:11:28.455Z,13.83
2019-02-06T12:13:57.447Z,14.25
2019-02-06T12:16:26.525Z,12.00
2019-02-06T12:18:56.358Z,11.12
2019-02-06T12:21:25.901Z,11.55
2019-02-06T12:23:54.855Z,12.40
2019-02-06T12:26:23.847Z,14.30
2019-02-06T12:28:52.730Z,14.85
2019-02-06T12:31:21.584Z,13.98
2019-02-06T12:33:50.928Z,10.75
2019-02-06T12:36:19.923Z,11.10
2019-02-06T12:38:53.744Z,11.93
2019-02-06T12:41:19.444Z,11.53
2019-02-06T12:43:48.529Z,15.45
2019-02-06T12:46:17.431Z,11.65
2019-02-06T12:48:46.424Z,14.30
2019-02-06T12:51:15.519Z,14.07
2019-02-06T12:53:44.519Z,15.03
2019-02-06T12:56:13.513Z,15.25
2019-02-06T12:58:42.501Z,13.38
2019-02-06T13:01:11.591Z,14.33
2019-02-06T13:03:40.589Z,16.02
2019-02-06T13:06:09.503Z,15.48
2019-02-06T13:08:39.292Z,17.27
2019-02-06T13:11:08.185Z,11.88
2019-02-06T13:13:37.073Z,15.45
2019-02-06T13:16:06.067Z,18.85
2019-02-06T13:18:34.957Z,32.60
2019-02-06T13:21:03.848Z,15.70
2019-02-06T13:23:32.739Z,17.77
2019-02-06T13:26:01.793Z,17.57
2019-02-06T13:28:30.829Z,16.25
2019-02-06T13:30:59.717Z,22.15
2019-02-06T13:33:28.608Z,23.98
2019-02-06T13:35:57.499Z,17.00
2019-02-06T13:38:26.027Z,17.75
2019-02-06T13:40:55.793Z,17.55
2019-02-06T13:43:24.785Z,17.10
2019-02-06T13:45:53.882Z,17.10
2019-02-06T13:48:22.884Z,18.62
2019-02-06T13:50:52.073Z,24.10
2019-02-06T13:53:20.722Z,21.15
2019-02-06T13:55:49.649Z,19.12
2019-02-06T13:58:20.311Z,17.25
2019-02-06T14:00:48.572Z,16.82
2019-02-06T14:03:18.212Z,18.12
2019-02-06T14:05:48.135Z,19.87
2019-02-06T14:08:17.792Z,17.65
2019-02-06T14:10:59.912Z,17.37
2019-02-06T14:13:17.721Z,19.10
2019-02-06T14:15:48.765Z,21.55
2019-02-06T14:18:37.930Z,21.00
2019-02-06T14:21:08.459Z,20.30
2019-02-06T14:23:40.259Z,19.77
2019-02-06T14:26:20.578Z,24.23
2019-02-06T14:28:58.479Z,22.30
2019-02-06T14:31:45.718Z,23.85
2019-02-06T14:34:24.878Z,21.05
2019-02-06T14:37:09.907Z,22.37
2019-02-06T14:39:39.831Z,18.70
2019-02-06T14:42:09.768Z,21.82
2019-02-06T14:44:56.379Z,22.37
2019-02-06T14:47:29.528Z,20.37
2019-02-06T14:50:16.025Z,23.80
2019-02-06T14:52:48.694Z,23.00
2019-02-06T14:55:21.344Z,23.55
2019-02-06T14:57:51.260Z,21.05
2019-02-06T15:00:24.085Z,24.27
2019-02-06T15:03:10.283Z,27.17
2019-02-06T15:05:56.630Z,28.83
2019-02-06T15:08:26.639Z,27.17
2019-02-06T15:10:59.265Z,31.65
2019-02-06T15:13:29.211Z,29.00
2019-02-06T15:16:17.328Z,32.75
2019-02-06T15:18:47.283Z,25.32
2019-02-06T15:21:17.264Z,24.00
2019-02-06T15:24:06.021Z,22.67
2019-02-06T15:26:44.976Z,26.65
2019-02-06T15:29:20.917Z,23.40
2019-02-06T15:32:00.235Z,25.02
2019-02-06T15:34:31.672Z,27.00
2019-02-06T15:37:10.664Z,23.35
2019-02-06T15:39:55.518Z,24.60
2019-02-06T15:42:34.240Z,27.55
2019-02-06T15:45:07.163Z,26.07
2019-02-06T15:47:39.787Z,24.72
2019-02-06T15:50:09.728Z,27.27
2019-02-06T15:52:42.607Z,25.20
2019-02-06T15:55:30.436Z,20.68
2019-02-06T15:58:06.340Z,23.85
2019-02-06T16:00:41.946Z,26.68
2019-02-06T16:03:11.892Z,24.75
2019-02-06T16:05:55.127Z,24.37
2019-02-06T16:08:25.140Z,28.20
2019-02-06T16:11:04.060Z,25.72
2019-02-06T16:13:42.763Z,25.62
2019-02-06T16:16:12.686Z,22.50
2019-02-06T16:18:45.514Z,27.75
2019-02-06T16:21:27.647Z,25.50
2019-02-06T16:24:00.490Z,25.53
2019-02-06T16:26:39.884Z,25.05
2019-02-06T16:29:28.045Z,23.62
2019-02-06T16:31:58.000Z,24.55
2019-02-06T16:34:33.981Z,24.75
2019-02-06T16:37:03.962Z,24.47
2019-02-06T16:39:36.771Z,24.43
2019-02-06T16:42:23.514Z,26.42
2019-02-06T16:45:10.231Z,24.72
2019-02-06T16:47:46.363Z,21.93
2019-02-06T16:50:22.056Z,25.27
2019-02-06T16:53:00.883Z,21.97
2019-02-06T16:55:47.146Z,26.70
2019-02-06T16:58:17.106Z,28.75
2019-02-06T17:00:58.835Z,24.05
2019-02-06T17:03:34.727Z,30.05
2019-02-06T17:06:04.642Z,25.77
2019-02-06T17:08:34.755Z,26.02
2019-02-06T17:11:07.613Z,30.32
2019-02-06T17:13:40.352Z,30.50
2019-02-06T17:16:22.491Z,31.30
2019-02-06T17:18:55.674Z,27.62
2019-02-06T17:21:31.922Z,26.82
2019-02-06T17:24:01.828Z,29.57
2019-02-06T17:26:31.743Z,27.00
2019-02-06T17:29:21.008Z,28.38
2019-02-06T17:32:07.723Z,30.90
2019-02-06T17:34:37.736Z,24.32
2019-02-06T17:37:08.227Z,29.92
2019-02-06T17:39:54.427Z,29.37
2019-02-06T17:42:24.992Z,32.75
2019-02-06T17:45:03.829Z,28.77
2019-02-06T17:47:36.793Z,29.85
2019-02-06T17:50:06.747Z,34.43
2019-02-06T17:52:36.671Z,38.15
2019-02-06T17:55:18.096Z,39.27
2019-02-06T17:57:47.111Z,33.28
2019-02-06T18:00:17.075Z,35.00
2019-02-06T18:02:45.611Z,32.00
2019-02-06T18:05:14.140Z,29.25
2019-02-06T18:07:42.591Z,28.47
2019-02-06T18:10:15.708Z,29.63
2019-02-06T18:12:44.246Z,29.37
2019-02-06T18:15:12.859Z,27.62
2019-02-06T18:17:41.349Z,31.75
2019-02-06T18:20:11.327Z,28.40
2019-02-06T18:22:39.727Z,31.37
2019-02-06T18:25:09.417Z,24.80
2019-02-06T18:27:38.675Z,26.15
2019-02-06T18:30:10.323Z,27.55
2019-02-06T18:32:38.803Z,31.45
2019-02-06T18:35:08.463Z,34.00
2019-02-06T18:37:43.489Z,29.52
2019-02-06T18:40:27.744Z,32.50
2019-02-06T18:42:57.279Z,31.35
2019-02-06T18:45:27.933Z,26.60
2019-02-06T18:47:57.560Z,29.15
2019-02-06T18:50:27.688Z,35.17
2019-02-06T18:52:57.463Z,29.27
2019-02-06T18:55:26.106Z,26.20
2019-02-06T18:57:55.512Z,31.93
2019-02-06T19:00:28.447Z,31.02
2019-02-06T19:02:57.083Z,34.75
2019-02-06T19:05:30.831Z,29.90
2019-02-06T19:07:59.288Z,34.65
2019-02-06T19:10:28.107Z,32.05
2019-02-06T19:12:56.739Z,36.10
2019-02-06T19:15:26.205Z,31.30
2019-02-06T19:17:54.728Z,33.95
2019-02-06T19:20:23.156Z,29.72
2019-02-06T19:22:51.611Z,28.92
2019-02-06T19:25:20.170Z,27.87
2019-02-06T19:27:48.699Z,25.23
2019-02-06T19:30:24.382Z,26.42
2019-02-06T19:32:53.190Z,32.15
2019-02-06T19:35:21.671Z,31.68
2019-02-06T19:37:50.171Z,33.63
2019-02-06T19:40:19.262Z,30.92
2019-02-06T19:42:58.847Z,32.48
2019-02-06T19:45:20.881Z,28.23
2019-02-06T19:47:49.376Z,31.40
2019-02-06T19:50:19.533Z,30.35
2019-02-06T19:52:47.987Z,29.40
2019-02-06T19:55:17.610Z,33.02
2019-02-06T19:57:46.035Z,31.87
2019-02-06T20:00:22.017Z,26.85
2019-02-06T20:02:50.679Z,29.05
2019-02-06T20:05:19.518Z,30.12
2019-02-06T20:07:48.411Z,30.17
2019-02-06T20:10:21.292Z,30.77
2019-02-06T20:12:49.755Z,30.17
2019-02-06T20:15:18.364Z,25.10
2019-02-06T20:17:46.841Z,30.75
2019-02-06T20:20:16.861Z,30.95
2019-02-06T20:22:45.456Z,30.65
2019-02-06T20:25:14.804Z,27.00
2019-02-06T20:27:43.397Z,26.42
2019-02-06T20:30:31.117Z,28.55
2019-02-06T20:32:59.639Z,31.20
2019-02-06T20:35:28.227Z,28.05
2019-02-06T20:37:57.543Z,26.20
2019-02-06T20:40:29.651Z,31.50
2019-02-06T20:42:58.111Z,26.10
2019-02-06T20:45:26.658Z,31.15
2019-02-06T20:47:55.159Z,33.80
2019-02-06T20:50:25.307Z,31.60
2019-02-06T20:52:53.796Z,34.50
2019-02-06T20:55:22.552Z,35.50
2019-02-06T20:57:50.999Z,34.05
2019-02-06T21:00:23.830Z,31.90
2019-02-06T21:02:52.287Z,31.82
2019-02-06T21:05:21.479Z,32.42
2019-02-06T21:07:49.927Z,32.10
2019-02-06T21:10:28.823Z,29.15
2019-02-06T21:12:57.266Z,33.85
2019-02-06T21:15:25.718Z,32.70
2019-02-06T21:17:54.284Z,26.95
2019-02-06T21:20:23.312Z,29.10
2019-02-06T21:22:51.758Z,32.67
2019-02-06T21:25:21.983Z,32.70
2019-02-06T21:27:50.983Z,31.12
2019-02-06T21:30:20.902Z,30.65
2019-02-06T21:32:49.383Z,31.70
2019-02-06T21:35:17.829Z,27.93
2019-02-06T21:37:46.335Z,31.93
2019-02-06T21:40:16.474Z,29.75
2019-02-06T21:42:44.919Z,27.52
2019-02-06T21:45:13.520Z,36.55
2019-02-06T21:47:41.964Z,29.10
2019-02-06T21:50:14.475Z,28.15
2019-02-06T21:52:42.971Z,26.68
2019-02-06T21:55:12.819Z,30.77
2019-02-06T21:57:41.280Z,26.55
2019-02-06T22:00:11.328Z,33.00
2019-02-06T22:02:39.777Z,31.93
2019-02-06T22:05:08.432Z,34.50
2019-02-06T22:07:36.908Z,30.70
2019-02-06T22:10:07.067Z,32.70
2019-02-06T22:12:35.618Z,30.37
2019-02-06T22:15:05.911Z,30.92
2019-02-06T22:17:34.404Z,30.97
2019-02-06T22:20:02.951Z,32.80
2019-02-06T22:22:31.408Z,31.23
2019-02-06T22:25:00.302Z,31.80
2019-02-06T22:27:28.742Z,30.82
2019-02-06T22:29:57.200Z,30.92
2019-02-06T22:32:25.689Z,31.95
2019-02-06T22:34:54.136Z,29.95
2019-02-06T22:37:22.579Z,31.05
2019-02-06T22:39:51.079Z,29.95
2019-02-06T22:42:19.818Z,30.12
2019-02-06T22:44:48.263Z,29.18
2019-02-06T22:47:16.751Z,31.30
2019-02-06T22:49:45.201Z,29.82
2019-02-06T22:52:13.643Z,34.80
2019-02-06T22:54:42.135Z,32.88
2019-02-06T22:57:10.988Z,32.60
2019-02-06T22:59:39.435Z,31.75
2019-02-06T23:02:07.931Z,29.67
2019-02-06T23:04:36.384Z,32.93
2019-02-06T23:07:07.175Z,33.48
2019-02-06T23:09:34.955Z,34.23
2019-02-06T23:12:03.415Z,36.45
2019-02-06T23:14:31.897Z,33.58
2019-02-06T23:17:00.447Z,30.82
2019-02-06T23:19:28.890Z,31.73
2019-02-06T23:21:57.387Z,35.92
2019-02-06T23:24:25.875Z,35.60
2019-02-06T23:26:54.319Z,30.57
2019-02-06T23:29:22.911Z,34.95
2019-02-06T23:31:51.360Z,34.58
2019-02-06T23:34:19.830Z,33.65
2019-02-06T23:36:48.329Z,33.78
2019-02-06T23:39:16.771Z,33.50
2019-02-06T23:41:45.219Z,34.10
2019-02-06T23:44:14.112Z,36.70
2019-02-06T23:46:42.555Z,33.88
2019-02-06T23:49:11.009Z,31.35
2019-02-06T23:51:39.503Z,33.23
2019-02-06T23:54:07.957Z,34.65
2019-02-06T23:56:36.407Z,32.73
2019-02-06T23:59:04.900Z,31.52
